METAR Data
IDs: Format: Raw Decoded Include TAF

Data at: 2058 UTC 18 Sep 2018

KBMG 182053Z 34007KT 10SM CLR 32/19 A2993 RMK AO2 SLP125 T03220189 56012
KBMG 181953Z 27003KT 10SM CLR 33/19 A2994 RMK AO2 SLP128 T03280189
KBMG 181853Z 29006KT 10SM CLR 32/19 A2995 RMK AO2 SLP131 T03220194
KBMG 181753Z VRB05KT 10SM CLR 32/19 A2996 RMK AO2 SLP137 T03170189 10322 20194 58006
KBMG 181653Z 31005KT 10SM CLR 31/19 A2997 RMK AO2 SLP140 T03060194
KBMG 181553Z VRB04KT 10SM CLR 29/20 A2998 RMK AO2 SLP142 T02940200
KBMG 181453Z VRB03KT 10SM CLR 28/19 A2998 RMK AO2 SLP145 T02780194 51006
KBMG 181353Z 27005KT 10SM CLR 25/21 A2998 RMK AO2 SLP145 T02500206
KBMG 181253Z 27003KT 10SM CLR 22/21 A2998 RMK AO2 SLP145 T02220211
KBMG 181153Z 00000KT 10SM CLR 19/19 A2997 RMK AO2 SLP141 T01940194 10217 20183 53007
KBMG 181053Z 00000KT 10SM CLR 19/19 A2996 RMK AO2 SLP136 T01940194
KBMG 180953Z AUTO 00000KT 10SM BKN110 19/19 A2995 RMK AO2 SLP133 T01940194
KBMG 180853Z AUTO 09003KT 10SM BKN110 21/20 A2995 RMK AO2 SLP131 T02060200 55003
KBMG 180753Z AUTO 00000KT 10SM CLR 21/20 A2994 RMK AO2 SLP130 T02060200
KBMG 180653Z AUTO 00000KT 10SM CLR 21/20 A2995 RMK AO2 SLP132 T02060200
KBMG 180553Z AUTO 00000KT 10SM FEW070 SCT090 22/21 A2995 RMK AO2 SLP134 T02170206 10250 20211 50003
KBMG 180453Z AUTO 00000KT 10SM SCT075 BKN090 23/21 A2996 RMK AO2 SLP136 T02280211 403170206
KBMG 180353Z AUTO 00000KT 10SM CLR 22/21 A2995 RMK AO2 SLP134 T02220206 TSNO
KBMG 180253Z AUTO 00000KT 10SM CLR 21/21 A2994 RMK AO2 SLP132 T02110206 51010 TSNO
KBMG 180153Z AUTO 00000KT 10SM CLR 22/21 A2994 RMK AO2 SLP132 T02220211
KBMG 180053Z 00000KT 10SM CLR 23/22 A2993 RMK AO2 SLP126 T02330222
KBMG 172353Z 00000KT 10SM CLR 25/22 A2991 RMK AO2 SLP122 T02500222 10317 20250 53003
KBMG 172253Z 25003KT 10SM CLR 29/21 A2991 RMK AO2 SLP118 T02940211
KBMG 172153Z 28005KT 10SM CLR 31/20 A2990 RMK AO2 SLP116 T03060200
KBMG 172053Z 31005KT 10SM BKN042 BKN050 BKN070 30/21 A2990 RMK AO2 SLP117 T03000206 56014
KBMG 171953Z 33003KT 10SM FEW050 SCT075 SCT090 29/21 A2991 RMK AO2 SLP119 T02940206
KBMG 171853Z VRB05KT 10SM SCT037 BKN047 BKN065 31/21 A2993 RMK AO2 SLP126 T03060211
KBMG 171753Z VRB04KT 10SM BKN037 BKN047 BKN060 29/21 A2995 RMK AO2 SLP131 T02890206 10300 20211 58008
KBMG 171653Z 23009KT 10SM SCT045 29/21 A2996 RMK AO2 SLP135 T02890211 $
KBMG 171553Z 35007KT 10SM FEW045 28/21 A2997 RMK AO2 SLP141 T02780211
KBMG 171453Z 36006KT 10SM BKN050 26/21 A2997 RMK AO2 SLP141 T02610211 52004
KBMG 171353Z 01003KT 10SM OVC050 23/21 A2997 RMK AO2 SLP139 T02330211
KBMG 171253Z 35003KT 10SM BKN050 22/21 A2996 RMK AO2 SLP138 T02170211
KBMG 171153Z 00000KT 10SM CLR 21/21 A2996 RMK AO2 SLP136 T02110206 10217 20206 53006
KBMG 171053Z 00000KT 10SM OVC100 21/21 A2995 RMK AO2 SLP132 T02110206 $
KBMG 170953Z AUTO 33003KT 10SM OVC090 21/21 A2994 RMK AO2 SLP131 T02110211 $